sensor_id;sensor_type;location;lat;lon;timestamp;P1;durP1;ratioP1;P2;durP2;ratioP2
13487;SDS011;6816;48.506;9.050;2022-09-09T00:08:19;2.70;;;1.13;;
13487;SDS011;6816;48.506;9.050;2022-09-09T00:11:24;2.13;;;1.00;;
13487;SDS011;6816;48.506;9.050;2022-09-09T00:21:11;2.67;;;1.00;;
13487;SDS011;6816;48.506;9.050;2022-09-09T00:24:23;1.20;;;1.10;;
13487;SDS011;6816;48.506;9.050;2022-09-09T00:27:31;4.17;;;1.40;;
13487;SDS011;6816;48.506;9.050;2022-09-09T00:30:41;1.87;;;1.13;;
13487;SDS011;6816;48.506;9.050;2022-09-09T00:33:42;2.83;;;1.13;;
13487;SDS011;6816;48.506;9.050;2022-09-09T00:36:43;3.13;;;1.10;;
13487;SDS011;6816;48.506;9.050;2022-09-09T00:39:45;2.40;;;1.10;;
13487;SDS011;6816;48.506;9.050;2022-09-09T00:43:38;3.10;;;1.10;;
13487;SDS011;6816;48.506;9.050;2022-09-09T00:46:20;5.13;;;1.03;;
13487;SDS011;6816;48.506;9.050;2022-09-09T01:10:14;1.27;;;1.00;;
13487;SDS011;6816;48.506;9.050;2022-09-09T01:12:57;1.93;;;1.23;;
13487;SDS011;6816;48.506;9.050;2022-09-09T01:16:02;2.77;;;1.10;;
13487;SDS011;6816;48.506;9.050;2022-09-09T01:19:05;1.83;;;1.10;;
13487;SDS011;6816;48.506;9.050;2022-09-09T01:29:14;3.57;;;1.20;;
13487;SDS011;6816;48.506;9.050;2022-09-09T01:39:09;1.43;;;1.00;;
13487;SDS011;6816;48.506;9.050;2022-09-09T01:42:12;2.33;;;1.20;;
13487;SDS011;6816;48.506;9.050;2022-09-09T01:45:15;3.10;;;1.00;;
13487;SDS011;6816;48.506;9.050;2022-09-09T01:48:16;3.27;;;1.00;;
13487;SDS011;6816;48.506;9.050;2022-09-09T01:51:17;2.03;;;0.97;;
13487;SDS011;6816;48.506;9.050;2022-09-09T01:54:19;4.47;;;1.40;;
13487;SDS011;6816;48.506;9.050;2022-09-09T01:57:25;1.43;;;1.10;;
13487;SDS011;6816;48.506;9.050;2022-09-09T02:00:32;1.30;;;0.90;;
13487;SDS011;6816;48.506;9.050;2022-09-09T02:03:36;3.20;;;1.00;;
13487;SDS011;6816;48.506;9.050;2022-09-09T02:06:38;1.37;;;0.90;;
13487;SDS011;6816;48.506;9.050;2022-09-09T02:09:40;3.37;;;1.00;;
13487;SDS011;6816;48.506;9.050;2022-09-09T02:12:47;1.33;;;0.90;;
13487;SDS011;6816;48.506;9.050;2022-09-09T02:15:56;2.97;;;0.97;;
13487;SDS011;6816;48.506;9.050;2022-09-09T02:19:08;1.30;;;0.70;;
13487;SDS011;6816;48.506;9.050;2022-09-09T02:22:30;2.83;;;1.00;;
13487;SDS011;6816;48.506;9.050;2022-09-09T02:25:34;2.63;;;1.10;;
13487;SDS011;6816;48.506;9.050;2022-09-09T02:28:37;2.70;;;1.23;;
13487;SDS011;6816;48.506;9.050;2022-09-09T02:31:39;1.00;;;0.90;;
13487;SDS011;6816;48.506;9.050;2022-09-09T02:34:44;4.10;;;1.03;;
13487;SDS011;6816;48.506;9.050;2022-09-09T02:37:51;4.00;;;1.00;;
13487;SDS011;6816;48.506;9.050;2022-09-09T02:40:56;2.63;;;0.80;;
13487;SDS011;6816;48.506;9.050;2022-09-09T02:43:58;2.00;;;0.93;;
13487;SDS011;6816;48.506;9.050;2022-09-09T02:53:43;1.40;;;0.93;;
13487;SDS011;6816;48.506;9.050;2022-09-09T02:56:52;3.67;;;1.20;;
13487;SDS011;6816;48.506;9.050;2022-09-09T02:59:55;2.37;;;1.30;;
13487;SDS011;6816;48.506;9.050;2022-09-09T03:02:58;1.93;;;1.10;;
13487;SDS011;6816;48.506;9.050;2022-09-09T03:05:59;2.73;;;1.30;;
13487;SDS011;6816;48.506;9.050;2022-09-09T03:09:00;2.33;;;1.20;;
13487;SDS011;6816;48.506;9.050;2022-09-09T03:12:02;3.33;;;1.93;;
13487;SDS011;6816;48.506;9.050;2022-09-09T03:15:04;2.23;;;1.33;;
13487;SDS011;6816;48.506;9.050;2022-09-09T03:18:06;1.80;;;1.10;;
13487;SDS011;6816;48.506;9.050;2022-09-09T03:21:06;1.67;;;1.10;;
13487;SDS011;6816;48.506;9.050;2022-09-09T03:24:07;3.10;;;1.17;;
13487;SDS011;6816;48.506;9.050;2022-09-09T03:27:08;4.37;;;1.10;;
13487;SDS011;6816;48.506;9.050;2022-09-09T03:30:08;1.83;;;1.10;;
13487;SDS011;6816;48.506;9.050;2022-09-09T03:33:09;2.20;;;1.10;;
13487;SDS011;6816;48.506;9.050;2022-09-09T03:36:10;2.60;;;1.10;;
13487;SDS011;6816;48.506;9.050;2022-09-09T03:39:11;4.63;;;0.97;;
13487;SDS011;6816;48.506;9.050;2022-09-09T03:42:12;0.93;;;0.83;;
13487;SDS011;6816;48.506;9.050;2022-09-09T03:45:14;1.93;;;1.10;;
13487;SDS011;6816;48.506;9.050;2022-09-09T03:48:18;1.67;;;0.87;;
13487;SDS011;6816;48.506;9.050;2022-09-09T03:51:19;2.13;;;1.20;;
13487;SDS011;6816;48.506;9.050;2022-09-09T03:54:21;2.93;;;1.00;;
13487;SDS011;6816;48.506;9.050;2022-09-09T03:57:22;4.57;;;1.00;;
13487;SDS011;6816;48.506;9.050;2022-09-09T04:00:23;1.23;;;0.90;;
13487;SDS011;6816;48.506;9.050;2022-09-09T04:03:24;2.63;;;1.00;;
13487;SDS011;6816;48.506;9.050;2022-09-09T04:06:25;1.63;;;0.80;;
13487;SDS011;6816;48.506;9.050;2022-09-09T04:09:26;2.70;;;0.80;;
13487;SDS011;6816;48.506;9.050;2022-09-09T04:12:26;1.50;;;1.00;;
13487;SDS011;6816;48.506;9.050;2022-09-09T04:15:27;1.63;;;1.00;;
13487;SDS011;6816;48.506;9.050;2022-09-09T04:18:29;3.70;;;1.10;;
13487;SDS011;6816;48.506;9.050;2022-09-09T04:21:30;2.20;;;1.10;;
13487;SDS011;6816;48.506;9.050;2022-09-09T04:24:31;2.20;;;1.20;;
13487;SDS011;6816;48.506;9.050;2022-09-09T04:27:31;3.13;;;1.20;;
13487;SDS011;6816;48.506;9.050;2022-09-09T04:30:32;1.73;;;1.10;;
13487;SDS011;6816;48.506;9.050;2022-09-09T04:33:34;2.83;;;1.37;;
13487;SDS011;6816;48.506;9.050;2022-09-09T04:36:35;4.70;;;1.40;;
13487;SDS011;6816;48.506;9.050;2022-09-09T04:39:36;2.13;;;1.20;;
13487;SDS011;6816;48.506;9.050;2022-09-09T04:42:37;1.63;;;1.10;;
13487;SDS011;6816;48.506;9.050;2022-09-09T04:45:38;1.33;;;1.10;;
13487;SDS011;6816;48.506;9.050;2022-09-09T04:48:40;3.47;;;1.70;;
13487;SDS011;6816;48.506;9.050;2022-09-09T04:51:43;2.17;;;1.00;;
13487;SDS011;6816;48.506;9.050;2022-09-09T04:54:44;1.20;;;1.10;;
13487;SDS011;6816;48.506;9.050;2022-09-09T04:57:45;2.00;;;1.40;;
13487;SDS011;6816;48.506;9.050;2022-09-09T05:00:46;2.90;;;1.17;;
13487;SDS011;6816;48.506;9.050;2022-09-09T05:03:47;2.87;;;1.07;;
13487;SDS011;6816;48.506;9.050;2022-09-09T05:06:48;1.60;;;1.20;;
13487;SDS011;6816;48.506;9.050;2022-09-09T05:09:49;2.37;;;1.20;;
13487;SDS011;6816;48.506;9.050;2022-09-09T05:12:55;3.40;;;1.20;;
13487;SDS011;6816;48.506;9.050;2022-09-09T05:15:56;2.00;;;1.07;;
13487;SDS011;6816;48.506;9.050;2022-09-09T05:18:56;3.60;;;1.20;;
13487;SDS011;6816;48.506;9.050;2022-09-09T05:21:58;1.90;;;1.00;;
13487;SDS011;6816;48.506;9.050;2022-09-09T05:25:01;2.50;;;1.00;;
13487;SDS011;6816;48.506;9.050;2022-09-09T05:28:01;3.53;;;1.20;;
13487;SDS011;6816;48.506;9.050;2022-09-09T05:31:03;1.97;;;1.50;;
13487;SDS011;6816;48.506;9.050;2022-09-09T05:34:05;4.27;;;1.37;;
13487;SDS011;6816;48.506;9.050;2022-09-09T05:37:05;1.80;;;1.00;;
13487;SDS011;6816;48.506;9.050;2022-09-09T05:40:07;1.77;;;1.10;;
13487;SDS011;6816;48.506;9.050;2022-09-09T05:43:09;1.67;;;1.00;;
13487;SDS011;6816;48.506;9.050;2022-09-09T05:46:13;1.63;;;1.10;;
13487;SDS011;6816;48.506;9.050;2022-09-09T05:49:18;2.37;;;1.20;;
13487;SDS011;6816;48.506;9.050;2022-09-09T05:52:19;1.50;;;1.00;;
13487;SDS011;6816;48.506;9.050;2022-09-09T05:55:20;1.33;;;1.00;;
13487;SDS011;6816;48.506;9.050;2022-09-09T05:58:21;1.73;;;1.00;;
13487;SDS011;6816;48.506;9.050;2022-09-09T06:01:23;3.07;;;1.20;;
13487;SDS011;6816;48.506;9.050;2022-09-09T06:04:26;1.10;;;1.00;;
13487;SDS011;6816;48.506;9.050;2022-09-09T06:07:27;1.40;;;1.30;;
13487;SDS011;6816;48.506;9.050;2022-09-09T06:10:27;3.17;;;1.43;;
13487;SDS011;6816;48.506;9.050;2022-09-09T06:13:28;3.07;;;1.40;;
13487;SDS011;6816;48.506;9.050;2022-09-09T06:16:30;2.87;;;1.43;;
13487;SDS011;6816;48.506;9.050;2022-09-09T06:19:34;2.40;;;1.33;;
13487;SDS011;6816;48.506;9.050;2022-09-09T06:22:35;2.23;;;1.30;;
13487;SDS011;6816;48.506;9.050;2022-09-09T06:25:35;3.10;;;1.60;;
13487;SDS011;6816;48.506;9.050;2022-09-09T06:28:36;3.77;;;1.67;;
13487;SDS011;6816;48.506;9.050;2022-09-09T06:31:36;3.43;;;1.43;;
13487;SDS011;6816;48.506;9.050;2022-09-09T06:34:37;5.30;;;1.60;;
13487;SDS011;6816;48.506;9.050;2022-09-09T06:37:38;3.90;;;2.00;;
13487;SDS011;6816;48.506;9.050;2022-09-09T06:40:39;4.87;;;1.63;;
13487;SDS011;6816;48.506;9.050;2022-09-09T06:43:39;4.23;;;1.70;;
13487;SDS011;6816;48.506;9.050;2022-09-09T06:46:40;7.83;;;1.93;;
13487;SDS011;6816;48.506;9.050;2022-09-09T06:49:41;3.47;;;1.60;;
13487;SDS011;6816;48.506;9.050;2022-09-09T06:52:45;4.47;;;1.60;;
13487;SDS011;6816;48.506;9.050;2022-09-09T06:55:47;5.23;;;1.53;;
13487;SDS011;6816;48.506;9.050;2022-09-09T06:58:48;6.33;;;1.70;;
13487;SDS011;6816;48.506;9.050;2022-09-09T07:01:50;4.57;;;1.48;;
13487;SDS011;6816;48.506;9.050;2022-09-09T07:04:51;4.23;;;1.53;;
13487;SDS011;6816;48.506;9.050;2022-09-09T07:07:52;2.92;;;1.30;;
13487;SDS011;6816;48.506;9.050;2022-09-09T07:10:53;2.88;;;1.35;;
13487;SDS011;6816;48.506;9.050;2022-09-09T07:13:54;3.93;;;1.40;;
13487;SDS011;6816;48.506;9.050;2022-09-09T07:16:56;2.45;;;1.40;;
13487;SDS011;6816;48.506;9.050;2022-09-09T07:19:57;3.53;;;1.17;;
13487;SDS011;6816;48.506;9.050;2022-09-09T07:22:57;2.85;;;1.40;;
13487;SDS011;6816;48.506;9.050;2022-09-09T07:25:59;1.77;;;1.45;;
13487;SDS011;6816;48.506;9.050;2022-09-09T07:28:59;2.00;;;1.20;;
13487;SDS011;6816;48.506;9.050;2022-09-09T07:32:00;3.33;;;1.50;;
13487;SDS011;6816;48.506;9.050;2022-09-09T07:35:02;1.98;;;1.20;;
13487;SDS011;6816;48.506;9.050;2022-09-09T07:38:03;2.00;;;1.33;;
13487;SDS011;6816;48.506;9.050;2022-09-09T07:41:07;2.63;;;1.30;;
13487;SDS011;6816;48.506;9.050;2022-09-09T07:44:16;3.40;;;1.38;;
13487;SDS011;6816;48.506;9.050;2022-09-09T07:47:24;1.20;;;1.10;;
13487;SDS011;6816;48.506;9.050;2022-09-09T07:50:25;3.60;;;1.40;;
13487;SDS011;6816;48.506;9.050;2022-09-09T07:53:26;1.58;;;1.10;;
13487;SDS011;6816;48.506;9.050;2022-09-09T07:56:27;3.03;;;1.38;;
13487;SDS011;6816;48.506;9.050;2022-09-09T07:59:28;2.90;;;1.40;;
13487;SDS011;6816;48.506;9.050;2022-09-09T08:02:30;2.50;;;1.30;;
13487;SDS011;6816;48.506;9.050;2022-09-09T08:05:30;1.40;;;1.20;;
13487;SDS011;6816;48.506;9.050;2022-09-09T08:08:31;2.40;;;1.10;;
13487;SDS011;6816;48.506;9.050;2022-09-09T08:11:32;2.42;;;1.30;;
13487;SDS011;6816;48.506;9.050;2022-09-09T08:14:34;2.42;;;1.17;;
13487;SDS011;6816;48.506;9.050;2022-09-09T08:17:35;2.83;;;1.20;;
13487;SDS011;6816;48.506;9.050;2022-09-09T08:20:37;2.50;;;1.35;;
13487;SDS011;6816;48.506;9.050;2022-09-09T08:23:41;2.08;;;1.20;;
13487;SDS011;6816;48.506;9.050;2022-09-09T08:26:44;2.38;;;1.30;;
13487;SDS011;6816;48.506;9.050;2022-09-09T08:29:48;2.55;;;1.48;;
13487;SDS011;6816;48.506;9.050;2022-09-09T08:32:49;2.75;;;1.27;;
13487;SDS011;6816;48.506;9.050;2022-09-09T08:35:51;2.55;;;1.27;;
13487;SDS011;6816;48.506;9.050;2022-09-09T08:38:53;2.35;;;1.20;;
13487;SDS011;6816;48.506;9.050;2022-09-09T08:51:36;2.72;;;1.30;;
13487;SDS011;6816;48.506;9.050;2022-09-09T08:54:37;2.47;;;1.17;;
13487;SDS011;6816;48.506;9.050;2022-09-09T08:57:39;1.90;;;1.10;;
13487;SDS011;6816;48.506;9.050;2022-09-09T09:04:19;2.65;;;0.90;;
13487;SDS011;6816;48.506;9.050;2022-09-09T09:10:45;1.42;;;1.02;;
13487;SDS011;6816;48.506;9.050;2022-09-09T09:13:52;1.83;;;1.10;;
13487;SDS011;6816;48.506;9.050;2022-09-09T09:17:10;3.33;;;1.00;;
13487;SDS011;6816;48.506;9.050;2022-09-09T09:20:14;2.08;;;0.88;;
13487;SDS011;6816;48.506;9.050;2022-09-09T09:23:18;1.80;;;0.80;;
13487;SDS011;6816;48.506;9.050;2022-09-09T09:26:25;1.20;;;0.80;;
13487;SDS011;6816;48.506;9.050;2022-09-09T09:29:32;4.03;;;0.93;;
13487;SDS011;6816;48.506;9.050;2022-09-09T09:32:35;1.60;;;0.82;;
13487;SDS011;6816;48.506;9.050;2022-09-09T09:35:38;6.70;;;0.82;;
13487;SDS011;6816;48.506;9.050;2022-09-09T09:38:38;1.88;;;0.80;;
13487;SDS011;6816;48.506;9.050;2022-09-09T09:41:40;1.55;;;0.70;;
13487;SDS011;6816;48.506;9.050;2022-09-09T09:44:42;3.22;;;0.82;;
13487;SDS011;6816;48.506;9.050;2022-09-09T09:47:43;3.28;;;0.75;;
13487;SDS011;6816;48.506;9.050;2022-09-09T09:51:00;1.67;;;0.80;;
13487;SDS011;6816;48.506;9.050;2022-09-09T09:57:24;2.30;;;0.80;;
13487;SDS011;6816;48.506;9.050;2022-09-09T10:00:29;2.72;;;0.80;;
13487;SDS011;6816;48.506;9.050;2022-09-09T10:03:30;1.50;;;0.70;;
13487;SDS011;6816;48.506;9.050;2022-09-09T10:06:37;2.75;;;0.80;;
13487;SDS011;6816;48.506;9.050;2022-09-09T10:09:39;2.00;;;0.80;;
13487;SDS011;6816;48.506;9.050;2022-09-09T10:12:56;1.58;;;1.08;;
13487;SDS011;6816;48.506;9.050;2022-09-09T10:19:34;1.13;;;0.63;;
13487;SDS011;6816;48.506;9.050;2022-09-09T10:22:36;1.83;;;0.90;;
13487;SDS011;6816;48.506;9.050;2022-09-09T10:32:36;2.83;;;0.60;;
13487;SDS011;6816;48.506;9.050;2022-09-09T10:35:45;2.70;;;1.40;;
13487;SDS011;6816;48.506;9.050;2022-09-09T10:39:01;1.67;;;0.80;;
13487;SDS011;6816;48.506;9.050;2022-09-09T10:42:24;2.60;;;0.80;;
13487;SDS011;6816;48.506;9.050;2022-09-09T10:45:32;2.83;;;0.70;;
13487;SDS011;6816;48.506;9.050;2022-09-09T10:55:13;1.17;;;0.68;;
13487;SDS011;6816;48.506;9.050;2022-09-09T10:58:38;1.52;;;0.70;;
13487;SDS011;6816;48.506;9.050;2022-09-09T11:01:42;1.83;;;0.52;;
13487;SDS011;6816;48.506;9.050;2022-09-09T11:08:23;2.78;;;0.63;;
13487;SDS011;6816;48.506;9.050;2022-09-09T11:11:27;1.65;;;0.70;;
13487;SDS011;6816;48.506;9.050;2022-09-09T11:18:20;2.15;;;0.60;;
13487;SDS011;6816;48.506;9.050;2022-09-09T11:21:24;1.30;;;0.60;;
13487;SDS011;6816;48.506;9.050;2022-09-09T11:24:48;0.73;;;0.40;;
13487;SDS011;6816;48.506;9.050;2022-09-09T11:31:11;1.45;;;0.32;;
13487;SDS011;6816;48.506;9.050;2022-09-09T11:37:35;0.73;;;0.50;;
13487;SDS011;6816;48.506;9.050;2022-09-09T11:40:38;0.73;;;0.40;;
13487;SDS011;6816;48.506;9.050;2022-09-09T11:43:43;1.33;;;0.50;;
13487;SDS011;6816;48.506;9.050;2022-09-09T11:46:46;0.77;;;0.40;;
13487;SDS011;6816;48.506;9.050;2022-09-09T11:49:50;0.70;;;0.30;;
13487;SDS011;6816;48.506;9.050;2022-09-09T11:53:03;1.40;;;0.40;;
13487;SDS011;6816;48.506;9.050;2022-09-09T11:56:13;1.35;;;0.50;;
13487;SDS011;6816;48.506;9.050;2022-09-09T11:59:49;0.93;;;0.30;;
13487;SDS011;6816;48.506;9.050;2022-09-09T12:02:55;1.67;;;0.50;;
13487;SDS011;6816;48.506;9.050;2022-09-09T12:05:55;2.10;;;0.57;;
13487;SDS011;6816;48.506;9.050;2022-09-09T12:08:58;1.42;;;0.55;;
13487;SDS011;6816;48.506;9.050;2022-09-09T12:18:14;1.75;;;0.60;;
13487;SDS011;6816;48.506;9.050;2022-09-09T12:21:29;0.77;;;0.60;;
13487;SDS011;6816;48.506;9.050;2022-09-09T12:24:43;4.40;;;1.05;;
13487;SDS011;6816;48.506;9.050;2022-09-09T12:34:43;1.20;;;0.50;;
13487;SDS011;6816;48.506;9.050;2022-09-09T12:37:54;2.00;;;0.50;;
13487;SDS011;6816;48.506;9.050;2022-09-09T12:40:58;0.93;;;0.40;;
13487;SDS011;6816;48.506;9.050;2022-09-09T12:44:08;3.47;;;1.17;;
13487;SDS011;6816;48.506;9.050;2022-09-09T12:47:10;2.42;;;0.60;;
13487;SDS011;6816;48.506;9.050;2022-09-09T12:50:16;1.30;;;0.43;;
13487;SDS011;6816;48.506;9.050;2022-09-09T12:53:22;2.13;;;0.50;;
13487;SDS011;6816;48.506;9.050;2022-09-09T12:56:37;0.60;;;0.30;;
13487;SDS011;6816;48.506;9.050;2022-09-09T12:59:39;0.65;;;0.50;;
13487;SDS011;6816;48.506;9.050;2022-09-09T13:02:45;0.90;;;0.50;;
13487;SDS011;6816;48.506;9.050;2022-09-09T13:05:50;1.25;;;0.50;;
13487;SDS011;6816;48.506;9.050;2022-09-09T13:08:52;1.73;;;0.55;;
13487;SDS011;6816;48.506;9.050;2022-09-09T13:11:54;1.80;;;0.47;;
13487;SDS011;6816;48.506;9.050;2022-09-09T13:14:58;2.10;;;0.70;;
13487;SDS011;6816;48.506;9.050;2022-09-09T13:17:59;1.63;;;0.52;;
13487;SDS011;6816;48.506;9.050;2022-09-09T13:21:04;1.00;;;0.57;;
13487;SDS011;6816;48.506;9.050;2022-09-09T13:24:06;1.60;;;0.60;;
13487;SDS011;6816;48.506;9.050;2022-09-09T13:27:34;2.13;;;0.80;;
13487;SDS011;6816;48.506;9.050;2022-09-09T13:30:40;1.23;;;0.50;;
13487;SDS011;6816;48.506;9.050;2022-09-09T13:33:42;1.10;;;0.40;;
13487;SDS011;6816;48.506;9.050;2022-09-09T13:36:46;1.25;;;0.52;;
13487;SDS011;6816;48.506;9.050;2022-09-09T13:39:52;1.65;;;0.50;;
13487;SDS011;6816;48.506;9.050;2022-09-09T13:42:55;1.48;;;0.50;;
13487;SDS011;6816;48.506;9.050;2022-09-09T13:45:58;1.80;;;0.50;;
13487;SDS011;6816;48.506;9.050;2022-09-09T13:49:02;2.55;;;0.85;;
13487;SDS011;6816;48.506;9.050;2022-09-09T13:52:19;1.73;;;0.40;;
13487;SDS011;6816;48.506;9.050;2022-09-09T13:55:22;5.38;;;0.90;;
13487;SDS011;6816;48.506;9.050;2022-09-09T13:58:24;2.20;;;0.55;;
13487;SDS011;6816;48.506;9.050;2022-09-09T14:01:25;0.90;;;0.40;;
13487;SDS011;6816;48.506;9.050;2022-09-09T14:04:27;1.35;;;0.60;;
13487;SDS011;6816;48.506;9.050;2022-09-09T14:07:28;2.05;;;0.47;;
13487;SDS011;6816;48.506;9.050;2022-09-09T14:10:29;1.27;;;0.47;;
13487;SDS011;6816;48.506;9.050;2022-09-09T14:13:29;2.50;;;0.60;;
13487;SDS011;6816;48.506;9.050;2022-09-09T14:16:30;1.42;;;0.43;;
13487;SDS011;6816;48.506;9.050;2022-09-09T14:19:31;1.85;;;0.50;;
13487;SDS011;6816;48.506;9.050;2022-09-09T14:22:31;1.35;;;0.32;;
13487;SDS011;6816;48.506;9.050;2022-09-09T14:25:32;4.60;;;0.75;;
13487;SDS011;6816;48.506;9.050;2022-09-09T14:28:33;1.25;;;0.50;;
13487;SDS011;6816;48.506;9.050;2022-09-09T14:31:35;1.25;;;0.50;;
13487;SDS011;6816;48.506;9.050;2022-09-09T14:34:36;1.55;;;0.50;;
13487;SDS011;6816;48.506;9.050;2022-09-09T14:37:38;0.63;;;0.43;;
13487;SDS011;6816;48.506;9.050;2022-09-09T14:40:39;1.30;;;0.47;;
13487;SDS011;6816;48.506;9.050;2022-09-09T14:43:40;1.75;;;0.47;;
13487;SDS011;6816;48.506;9.050;2022-09-09T14:46:40;1.20;;;0.50;;
13487;SDS011;6816;48.506;9.050;2022-09-09T14:49:42;0.77;;;0.40;;
13487;SDS011;6816;48.506;9.050;2022-09-09T14:52:43;0.73;;;0.40;;
13487;SDS011;6816;48.506;9.050;2022-09-09T14:55:44;1.33;;;0.50;;
13487;SDS011;6816;48.506;9.050;2022-09-09T14:58:46;1.27;;;0.50;;
13487;SDS011;6816;48.506;9.050;2022-09-09T15:01:48;0.52;;;0.35;;
13487;SDS011;6816;48.506;9.050;2022-09-09T15:04:48;1.38;;;0.30;;
13487;SDS011;6816;48.506;9.050;2022-09-09T15:07:52;1.15;;;0.47;;
13487;SDS011;6816;48.506;9.050;2022-09-09T15:11:05;2.88;;;0.43;;
13487;SDS011;6816;48.506;9.050;2022-09-09T15:14:10;2.63;;;0.43;;
13487;SDS011;6816;48.506;9.050;2022-09-09T15:17:12;0.90;;;0.43;;
13487;SDS011;6816;48.506;9.050;2022-09-09T15:20:12;2.08;;;0.43;;
13487;SDS011;6816;48.506;9.050;2022-09-09T15:23:13;1.65;;;0.45;;
13487;SDS011;6816;48.506;9.050;2022-09-09T15:26:14;0.82;;;0.40;;
13487;SDS011;6816;48.506;9.050;2022-09-09T15:29:15;0.40;;;0.35;;
13487;SDS011;6816;48.506;9.050;2022-09-09T15:32:16;0.63;;;0.38;;
13487;SDS011;6816;48.506;9.050;2022-09-09T15:35:17;1.45;;;0.40;;
13487;SDS011;6816;48.506;9.050;2022-09-09T15:38:17;0.57;;;0.38;;
13487;SDS011;6816;48.506;9.050;2022-09-09T15:41:19;0.30;;;0.28;;
13487;SDS011;6816;48.506;9.050;2022-09-09T15:44:21;0.73;;;0.30;;
13487;SDS011;6816;48.506;9.050;2022-09-09T15:47:25;1.40;;;0.30;;
13487;SDS011;6816;48.506;9.050;2022-09-09T15:50:26;0.75;;;0.40;;
13487;SDS011;6816;48.506;9.050;2022-09-09T15:53:29;0.47;;;0.30;;
13487;SDS011;6816;48.506;9.050;2022-09-09T15:56:32;1.08;;;0.30;;
13487;SDS011;6816;48.506;9.050;2022-09-09T15:59:33;1.27;;;0.50;;
13487;SDS011;6816;48.506;9.050;2022-09-09T16:02:34;1.33;;;0.40;;
13487;SDS011;6816;48.506;9.050;2022-09-09T16:05:34;0.35;;;0.22;;
13487;SDS011;6816;48.506;9.050;2022-09-09T16:08:36;1.30;;;0.52;;
13487;SDS011;6816;48.506;9.050;2022-09-09T16:11:38;0.65;;;0.40;;
13487;SDS011;6816;48.506;9.050;2022-09-09T16:14:39;0.90;;;0.30;;
13487;SDS011;6816;48.506;9.050;2022-09-09T16:17:40;0.40;;;0.30;;
13487;SDS011;6816;48.506;9.050;2022-09-09T16:20:41;1.40;;;0.30;;
13487;SDS011;6816;48.506;9.050;2022-09-09T16:23:41;0.65;;;0.20;;
13487;SDS011;6816;48.506;9.050;2022-09-09T16:26:44;0.88;;;0.30;;
13487;SDS011;6816;48.506;9.050;2022-09-09T16:29:46;1.35;;;0.40;;
13487;SDS011;6816;48.506;9.050;2022-09-09T16:32:47;0.60;;;0.52;;
13487;SDS011;6816;48.506;9.050;2022-09-09T16:35:49;1.83;;;0.38;;
13487;SDS011;6816;48.506;9.050;2022-09-09T16:38:53;1.48;;;0.50;;
13487;SDS011;6816;48.506;9.050;2022-09-09T16:41:57;1.38;;;0.50;;
13487;SDS011;6816;48.506;9.050;2022-09-09T16:44:58;0.93;;;0.45;;
13487;SDS011;6816;48.506;9.050;2022-09-09T16:47:59;0.60;;;0.30;;
13487;SDS011;6816;48.506;9.050;2022-09-09T16:51:01;0.80;;;0.60;;
13487;SDS011;6816;48.506;9.050;2022-09-09T16:54:06;1.38;;;0.45;;
13487;SDS011;6816;48.506;9.050;2022-09-09T16:57:08;0.80;;;0.43;;
13487;SDS011;6816;48.506;9.050;2022-09-09T17:00:09;1.05;;;0.30;;
13487;SDS011;6816;48.506;9.050;2022-09-09T17:03:13;0.45;;;0.40;;
13487;SDS011;6816;48.506;9.050;2022-09-09T17:06:17;0.80;;;0.50;;
13487;SDS011;6816;48.506;9.050;2022-09-09T17:09:18;1.55;;;0.35;;
13487;SDS011;6816;48.506;9.050;2022-09-09T17:12:20;1.77;;;0.90;;
13487;SDS011;6816;48.506;9.050;2022-09-09T17:15:21;2.80;;;0.85;;
13487;SDS011;6816;48.506;9.050;2022-09-09T17:18:25;1.42;;;0.68;;
13487;SDS011;6816;48.506;9.050;2022-09-09T17:21:28;1.42;;;0.68;;
13487;SDS011;6816;48.506;9.050;2022-09-09T17:24:29;0.40;;;0.30;;
13487;SDS011;6816;48.506;9.050;2022-09-09T17:27:30;0.52;;;0.30;;
13487;SDS011;6816;48.506;9.050;2022-09-09T17:30:35;0.60;;;0.32;;
13487;SDS011;6816;48.506;9.050;2022-09-09T17:33:37;1.77;;;0.40;;
13487;SDS011;6816;48.506;9.050;2022-09-09T17:36:39;1.38;;;0.35;;
13487;SDS011;6816;48.506;9.050;2022-09-09T17:39:39;1.17;;;0.50;;
13487;SDS011;6816;48.506;9.050;2022-09-09T17:42:40;0.95;;;0.50;;
13487;SDS011;6816;48.506;9.050;2022-09-09T17:45:41;0.98;;;0.43;;
13487;SDS011;6816;48.506;9.050;2022-09-09T17:48:42;1.40;;;0.47;;
13487;SDS011;6816;48.506;9.050;2022-09-09T17:51:44;1.05;;;0.52;;
13487;SDS011;6816;48.506;9.050;2022-09-09T17:54:46;1.65;;;0.80;;
13487;SDS011;6816;48.506;9.050;2022-09-09T17:57:46;1.88;;;0.60;;
13487;SDS011;6816;48.506;9.050;2022-09-09T18:00:47;1.52;;;0.60;;
13487;SDS011;6816;48.506;9.050;2022-09-09T18:03:50;1.65;;;0.50;;
13487;SDS011;6816;48.506;9.050;2022-09-09T18:06:51;2.35;;;0.47;;
13487;SDS011;6816;48.506;9.050;2022-09-09T18:09:53;2.35;;;0.60;;
13487;SDS011;6816;48.506;9.050;2022-09-09T18:12:54;1.05;;;0.43;;
13487;SDS011;6816;48.506;9.050;2022-09-09T18:15:58;0.95;;;0.45;;
13487;SDS011;6816;48.506;9.050;2022-09-09T18:18:59;1.67;;;0.40;;
13487;SDS011;6816;48.506;9.050;2022-09-09T18:22:03;1.25;;;0.63;;
13487;SDS011;6816;48.506;9.050;2022-09-09T18:25:04;2.38;;;0.40;;
13487;SDS011;6816;48.506;9.050;2022-09-09T18:28:05;1.17;;;0.40;;
13487;SDS011;6816;48.506;9.050;2022-09-09T18:31:07;1.83;;;0.40;;
13487;SDS011;6816;48.506;9.050;2022-09-09T18:34:10;0.68;;;0.40;;
13487;SDS011;6816;48.506;9.050;2022-09-09T18:37:12;1.52;;;0.50;;
13487;SDS011;6816;48.506;9.050;2022-09-09T18:40:13;1.10;;;0.32;;
13487;SDS011;6816;48.506;9.050;2022-09-09T18:43:14;1.38;;;0.47;;
13487;SDS011;6816;48.506;9.050;2022-09-09T18:46:16;1.05;;;0.57;;
13487;SDS011;6816;48.506;9.050;2022-09-09T18:49:19;1.27;;;0.52;;
13487;SDS011;6816;48.506;9.050;2022-09-09T18:52:20;0.50;;;0.30;;
13487;SDS011;6816;48.506;9.050;2022-09-09T18:55:21;2.30;;;0.70;;
13487;SDS011;6816;48.506;9.050;2022-09-09T18:58:22;0.45;;;0.25;;
13487;SDS011;6816;48.506;9.050;2022-09-09T19:01:24;0.40;;;0.40;;
13487;SDS011;6816;48.506;9.050;2022-09-09T19:04:25;0.40;;;0.30;;
13487;SDS011;6816;48.506;9.050;2022-09-09T19:07:26;0.98;;;0.30;;
13487;SDS011;6816;48.506;9.050;2022-09-09T19:10:27;1.75;;;0.40;;
13487;SDS011;6816;48.506;9.050;2022-09-09T19:13:30;1.90;;;0.50;;
13487;SDS011;6816;48.506;9.050;2022-09-09T19:16:32;1.30;;;0.28;;
13487;SDS011;6816;48.506;9.050;2022-09-09T19:19:33;1.33;;;0.50;;
13487;SDS011;6816;48.506;9.050;2022-09-09T19:22:34;1.10;;;0.40;;
13487;SDS011;6816;48.506;9.050;2022-09-09T19:25:35;1.92;;;0.50;;
13487;SDS011;6816;48.506;9.050;2022-09-09T19:28:38;1.08;;;0.63;;
13487;SDS011;6816;48.506;9.050;2022-09-09T19:31:39;1.35;;;0.60;;
13487;SDS011;6816;48.506;9.050;2022-09-09T19:34:41;1.13;;;0.55;;
13487;SDS011;6816;48.506;9.050;2022-09-09T19:37:43;0.90;;;0.47;;
13487;SDS011;6816;48.506;9.050;2022-09-09T19:40:43;1.27;;;0.40;;
13487;SDS011;6816;48.506;9.050;2022-09-09T19:43:44;1.65;;;0.40;;
13487;SDS011;6816;48.506;9.050;2022-09-09T19:46:45;0.80;;;0.45;;
13487;SDS011;6816;48.506;9.050;2022-09-09T19:49:46;0.90;;;0.38;;
13487;SDS011;6816;48.506;9.050;2022-09-09T19:52:46;3.15;;;0.63;;
13487;SDS011;6816;48.506;9.050;2022-09-09T19:55:47;0.85;;;0.50;;
13487;SDS011;6816;48.506;9.050;2022-09-09T19:58:52;0.83;;;0.40;;
13487;SDS011;6816;48.506;9.050;2022-09-09T20:01:54;1.13;;;0.43;;
13487;SDS011;6816;48.506;9.050;2022-09-09T20:04:57;1.85;;;0.60;;
13487;SDS011;6816;48.506;9.050;2022-09-09T20:07:58;1.95;;;0.60;;
13487;SDS011;6816;48.506;9.050;2022-09-09T20:10:59;0.47;;;0.37;;
13487;SDS011;6816;48.506;9.050;2022-09-09T20:14:00;0.70;;;0.50;;
13487;SDS011;6816;48.506;9.050;2022-09-09T20:17:01;1.93;;;0.57;;
13487;SDS011;6816;48.506;9.050;2022-09-09T20:20:01;0.82;;;0.55;;
13487;SDS011;6816;48.506;9.050;2022-09-09T20:23:03;1.87;;;0.53;;
13487;SDS011;6816;48.506;9.050;2022-09-09T20:26:05;0.90;;;0.40;;
13487;SDS011;6816;48.506;9.050;2022-09-09T20:29:10;1.17;;;0.40;;
13487;SDS011;6816;48.506;9.050;2022-09-09T20:32:12;1.02;;;0.50;;
13487;SDS011;6816;48.506;9.050;2022-09-09T20:35:13;1.93;;;0.50;;
13487;SDS011;6816;48.506;9.050;2022-09-09T20:38:14;1.87;;;0.50;;